Agana Heights, GU

1:46 PM ChST on October 22, 2014 (GMT +1000)
Maite | Change Station
CLOSE
Current Station
Personal Weather Station
Location: Maite, GU
Elevation: 140 ft
Nearby Weather Stations
Active Advisory: High Surf Advisory

Elev 140 ft 13.48 °N, 144.76 °E | Updated 11 seconds ago

Partly Cloudy
Partly Cloudy
88.9 °F
Feels Like 101 °F
N
4.0
Wind Variable Wind from SSE
Gusts 9.0 mph

Today
High -- | Low -- °F
--% Chance of Precip.
Yesterday
High -- | Low -- °F
Precip. -- in
6:12 AM 5:58 PM
Waning Crescent, 3% visible
Pressure 29.78 in
Visibility 10.0 miles
Clouds Few 3000 ft
Heat Index 101 °F
Dew Point 76 °F
Humidity 67%
Rainfall 0.00 in
Snow Depth Not available.
UV 9.3 out of 12
Pollen Not available.
Air Quality Not available.
Flu Activity Widespread
METAR PGUM 220254Z COR 14005KT 10SM FEW030 31/23 A2980 RMK AO2 SLP083 T03060233 56018

More Conditions Fewer Conditions

Pressure 29.78 in
Visibility 10.0 miles
Clouds Few 3000 ft
Heat Index 101 °F
Dew Point 76 °F
Humidity 67%
Rainfall 0.00 in
Snow Depth Not available.
UV 9.3 out of 12
Pollen Not available.
Air Quality Not available.
Flu Activity Widespread
METAR PGUM 220254Z COR 14005KT 10SM FEW030 31/23 A2980 RMK AO2 SLP083 T03060233 56018

More Conditions Fewer Conditions

10-Day Weather Forecast

Almanac

Astronomy

Oct. 22, 2014 Rise Set
Actual Time 6:12 AM ChST 5:58 PM ChST
Civil Twilight 5:51 AM ChST 6:19 PM ChST
Nautical Twilight 5:26 AM ChST 6:44 PM ChST
Astronomical Twilight 5:01 AM ChST 7:09 PM ChST
Moon 4:35 AM ChST 4:49 PM ChST
Length of Visible Light 12h 28m
Length of Day
11h 45m
Tomorrow will be 0m 41s shorter.
Waning Crescent, 3% of the Moon is Illuminated
Oct 21
Waning Crescent
Oct 23
New
Oct 30
First Quarter
Nov 6
Full
Nov 14
Last Quarter

Community

WunderPhotos

Upload Photos

1,763,874 photos uploaded!

Nearby

Snow Depth

Station Depth Elevation
No new snow has been reported.

Earthquake Activity

City Distance Mag. Time & Date
No recent earthquake activity has been reported nearby.
Minimum magnitude displayed is 2.5.

Coastal Water Temperatures

Place Temperature
No Stations Reporting

Nearby Weather Stations